Terminal Aerodrome Forecast
Issued by NWS Charleston, WV

Current Version | Previous Version | Text Only | Print | Product List | Glossary Off
Versions: 1 2 3 4 5 6 7 8 9 10 11 12 13 14 15 16 17 18 19 20 21 22 23 24

000
FTUS41 KRLX 011100
TAFEKN
TAF
KEKN 011122Z 0112/0212 00000KT 4SM -SHRA BR OVC008
     FM011400 23004KT 5SM BR OVC010
     FM011500 25006KT P6SM BKN015
     FM011800 25008KT P6SM VCTS BKN035CB
     FM012200 19002KT P6SM SCT040
     FM020500 00000KT 5SM BR BKN025
     FM020800 00000KT 2SM BR SCT002 BKN020=

USA.gov is the U.S. government's official web portal to all federal, state and local government web resources and services.